createdAt,value
2023-05-14T00:02:20.545Z,11.27
2023-05-14T00:07:22.395Z,11.27
2023-05-14T00:12:24.214Z,11.15
2023-05-14T00:17:25.441Z,11.19
2023-05-14T00:22:26.758Z,11.22
2023-05-14T00:27:28.643Z,11.15
2023-05-14T00:32:30.354Z,11.11
2023-05-14T00:37:31.864Z,11.07
2023-05-14T00:42:33.273Z,11.01
2023-05-14T00:47:35.127Z,11
2023-05-14T00:52:36.489Z,10.94
2023-05-14T00:57:37.906Z,10.94
2023-05-14T01:02:40.137Z,10.88
2023-05-14T01:07:41.560Z,10.92
2023-05-14T01:12:42.812Z,10.92
2023-05-14T01:17:44.102Z,10.86
2023-05-14T01:22:46.017Z,10.74
2023-05-14T01:27:47.572Z,10.73
2023-05-14T01:32:49.609Z,10.64
2023-05-14T01:37:51.237Z,10.62
2023-05-14T01:42:52.941Z,10.62
2023-05-14T01:47:55.083Z,10.59
2023-05-14T01:52:56.915Z,10.55
2023-05-14T01:57:58.628Z,10.59
2023-05-14T02:03:00.325Z,10.59
2023-05-14T02:08:02.431Z,10.55
2023-05-14T02:13:03.802Z,10.53
2023-05-14T02:18:05.644Z,10.55
2023-05-14T02:23:07.098Z,10.57
2023-05-14T02:28:08.874Z,10.54
2023-05-14T02:33:10.870Z,10.47
2023-05-14T02:38:12.995Z,10.52
2023-05-14T02:43:14.630Z,10.43
2023-05-14T02:48:16.561Z,10.43
2023-05-14T03:08:23.909Z,10.44
2023-05-14T03:18:26.852Z,10.45
2023-05-14T03:28:30.403Z,10.48
2023-05-14T04:03:41.487Z,10.56
2023-05-14T04:48:55.223Z,10.41
2023-05-14T05:09:02.210Z,10.24
2023-05-14T05:14:03.329Z,10.25
2023-05-14T05:49:15.380Z,9.99
2023-05-14T05:54:17.060Z,9.93
2023-05-14T05:59:18.340Z,10.01
2023-05-14T06:04:20.024Z,10.04
2023-05-14T06:09:22.073Z,10.1
2023-05-14T06:14:24.038Z,10.17
2023-05-14T06:19:26.200Z,10.21
2023-05-14T06:24:27.774Z,10.27
2023-05-14T06:29:29.411Z,10.25
2023-05-14T06:34:30.714Z,10.31
2023-05-14T06:39:32.521Z,10.37
2023-05-14T06:44:34.615Z,10.34
2023-05-14T06:49:36.345Z,10.28
2023-05-14T06:54:38.401Z,10.37
2023-05-14T06:59:39.814Z,10.42
2023-05-14T07:04:41.704Z,10.43
2023-05-14T07:09:42.936Z,10.48
2023-05-14T07:14:45.114Z,10.56
2023-05-14T07:19:46.877Z,10.56
2023-05-14T07:24:48.677Z,10.54
2023-05-14T07:29:50.265Z,10.67
2023-05-14T07:34:51.445Z,10.81
2023-05-14T07:39:52.882Z,10.91
2023-05-14T07:44:54.447Z,10.97
2023-05-14T07:49:55.758Z,11.05
2023-05-14T07:54:57.811Z,11.18
2023-05-14T07:59:59.612Z,11.24
2023-05-14T08:05:01.008Z,11.3
2023-05-14T08:10:02.991Z,11.29
2023-05-14T08:15:04.973Z,11.27
2023-05-14T08:20:07.057Z,11.32
2023-05-14T08:25:08.350Z,11.42
2023-05-14T08:30:10.386Z,11.45
2023-05-14T08:35:12.271Z,11.34
2023-05-14T08:40:14.436Z,11.33
2023-05-14T08:45:16.372Z,11.37
2023-05-14T08:50:18.166Z,11.47
2023-05-14T08:55:19.209Z,11.51
2023-05-14T09:00:21.253Z,11.58
2023-05-14T09:05:22.991Z,11.67
2023-05-14T09:10:24.894Z,11.76
2023-05-14T09:15:26.599Z,11.75
2023-05-14T09:20:28.416Z,11.79
2023-05-14T09:25:29.416Z,11.9
2023-05-14T09:30:31.052Z,11.85
2023-05-14T09:35:32.878Z,11.72
2023-05-14T09:40:34.244Z,11.8
2023-05-14T09:45:35.943Z,11.86
2023-05-14T09:50:38.085Z,11.97
2023-05-14T09:55:39.434Z,11.98
2023-05-14T10:00:41.142Z,12.08
2023-05-14T10:05:42.555Z,12.22
2023-05-14T10:10:44.522Z,12.27
2023-05-14T10:15:46.006Z,12.34
2023-05-14T10:20:47.414Z,12.4
2023-05-14T10:25:49.382Z,12.43
2023-05-14T10:30:51.136Z,12.4
2023-05-14T10:35:53.186Z,12.54
2023-05-14T10:40:54.871Z,12.67
2023-05-14T10:45:56.376Z,12.76
2023-05-14T10:50:57.824Z,12.78
2023-05-14T10:55:59.060Z,12.88
2023-05-14T11:01:01.171Z,12.95
2023-05-14T11:06:02.889Z,12.93
2023-05-14T11:11:04.525Z,12.94
2023-05-14T11:21:07.980Z,13.16
2023-05-14T11:26:09.752Z,13.19
2023-05-14T11:31:11.564Z,13.37
2023-05-14T11:36:12.985Z,13.61
2023-05-14T11:41:15.132Z,13.75
2023-05-14T11:46:16.752Z,13.77
2023-05-14T11:51:18.138Z,13.92
2023-05-14T11:56:19.362Z,14.06
2023-05-14T12:01:21.104Z,14.16
2023-05-14T12:06:22.817Z,14.38
2023-05-14T12:11:24.191Z,14.64
2023-05-14T12:16:26.073Z,14.85
2023-05-14T12:21:27.344Z,14.83
2023-05-14T12:26:28.684Z,14.93
2023-05-14T12:31:30.012Z,15.19
2023-05-14T12:36:31.789Z,15.37
2023-05-14T12:41:32.975Z,15.36
2023-05-14T12:46:34.834Z,15.57
2023-05-14T12:51:36.838Z,15.78
2023-05-14T12:56:38.468Z,15.92
2023-05-14T13:01:40.651Z,16.1
2023-05-14T13:06:42.702Z,16.1
2023-05-14T13:11:44.267Z,16.15
2023-05-14T13:16:46.132Z,16.18
2023-05-14T13:21:48.073Z,16.2
2023-05-14T13:26:49.884Z,16.26
2023-05-14T13:31:51.174Z,16.29
2023-05-14T13:36:52.328Z,16.39
2023-05-14T13:41:54.020Z,16.49
2023-05-14T13:46:55.981Z,16.46
2023-05-14T13:51:57.526Z,16.56
2023-05-14T13:56:59.076Z,16.74
2023-05-14T14:02:01.080Z,16.87
2023-05-14T14:07:02.428Z,16.84
2023-05-14T14:12:03.888Z,16.86
2023-05-14T14:17:05.877Z,16.96
2023-05-14T14:22:07.920Z,17.04
2023-05-14T14:27:09.349Z,17.17
2023-05-14T14:32:10.815Z,17.29
2023-05-14T14:37:12.638Z,17.4
2023-05-14T14:42:14.389Z,17.49
2023-05-14T14:47:16.314Z,17.59
2023-05-14T14:52:17.802Z,17.69
2023-05-14T14:57:19.691Z,17.79
2023-05-14T15:02:21.672Z,17.94
2023-05-14T15:07:23.575Z,18.11
2023-05-14T15:12:25.008Z,17.99
2023-05-14T15:17:26.655Z,18
2023-05-14T15:17:32.986Z,18
2023-05-14T15:22:34.924Z,18
2023-05-14T15:27:36.865Z,17.71
2023-05-14T15:32:38.234Z,17.06
2023-05-14T15:37:40.079Z,15.7
2023-05-14T15:42:41.984Z,14.87
2023-05-14T15:47:44.071Z,14.3
2023-05-14T15:52:46.105Z,13.88
2023-05-14T15:57:47.738Z,13.5
2023-05-14T16:02:49.005Z,13.27
2023-05-14T16:07:50.986Z,13.12
2023-05-14T16:12:52.993Z,13.2
2023-05-14T16:17:56.251Z,13.01
2023-05-14T16:22:56.246Z,12.77
2023-05-14T16:27:58.091Z,12.64
2023-05-14T16:32:59.766Z,12.38
2023-05-14T16:38:01.810Z,12.24
2023-05-14T16:43:03.324Z,12.26
2023-05-14T16:48:04.599Z,12.21
2023-05-14T16:53:05.844Z,12.14
2023-05-14T16:58:07.638Z,12.05
2023-05-14T17:03:08.992Z,12.07
2023-05-14T17:08:10.430Z,12.15
2023-05-14T17:13:11.801Z,12.04
2023-05-14T17:18:13.436Z,12.1
2023-05-14T17:23:14.509Z,12.2
2023-05-14T17:43:21.091Z,12.32
2023-05-14T18:03:28.438Z,12.46
2023-05-14T19:03:50.197Z,12.76
2023-05-14T19:18:55.690Z,12.73
2023-05-14T19:28:58.414Z,12.66
2023-05-14T20:19:14.041Z,12.31
2023-05-14T20:24:15.601Z,12.35
2023-05-14T20:29:17.050Z,12.32
2023-05-14T20:34:18.799Z,12.31
2023-05-14T20:39:20.910Z,12.33
2023-05-14T20:44:22.587Z,12.36
2023-05-14T20:49:24.329Z,12.32
2023-05-14T20:54:26.100Z,12.37
2023-05-14T20:59:27.389Z,12.38
2023-05-14T21:04:28.639Z,12.35
2023-05-14T21:09:29.975Z,12.36
2023-05-14T21:14:31.801Z,12.38
2023-05-14T21:19:33.499Z,12.38
2023-05-14T21:24:35.365Z,12.32
2023-05-14T21:29:36.998Z,12.33
2023-05-14T21:34:38.974Z,12.31
2023-05-14T21:39:41.161Z,12.25
2023-05-14T21:44:43.183Z,12.24
2023-05-14T21:49:44.389Z,12.19
2023-05-14T21:54:45.904Z,12.12
2023-05-14T21:59:47.360Z,12.04
2023-05-14T22:04:49.401Z,12
2023-05-14T22:09:50.763Z,11.95
2023-05-14T22:14:52.016Z,11.84
2023-05-14T22:19:53.880Z,11.85
2023-05-14T22:24:55.079Z,11.81
2023-05-14T22:29:56.661Z,11.79
2023-05-14T22:34:58.482Z,11.79
2023-05-14T22:40:00.228Z,11.77
2023-05-14T22:45:02.048Z,11.77
2023-05-14T22:50:04.088Z,11.7
2023-05-14T22:55:06.130Z,11.7
2023-05-14T23:00:07.415Z,11.64
2023-05-14T23:05:09.382Z,11.56
2023-05-14T23:10:10.996Z,11.54
2023-05-14T23:15:12.846Z,11.49
2023-05-14T23:20:14.474Z,11.45
2023-05-14T23:25:16.044Z,11.39
2023-05-14T23:30:18.144Z,11.4
2023-05-14T23:35:19.391Z,11.38
2023-05-14T23:40:20.951Z,11.33
2023-05-14T23:45:23.048Z,11.34
2023-05-14T23:50:24.398Z,11.32
2023-05-14T23:55:26.211Z,11.28
